Time,TemperatureF,DewpointF,PressureIn,WindDirection,WindDirectionDegrees,WindSpeedMPH,WindSpeedGustMPH,Humidity,HourlyPrecipIn,Conditions,Clouds,dailyrainin,SoftwareType,DateUTC
2013-04-07 00:09:00,41.2,27.5,29.80,West,263,0.0,0.0,58,0.00,,,0.00,Wunderground v.1.15,2013-04-07 06:09:00,
2013-04-07 00:14:00,41.3,28.9,29.80,West,263,0.0,0.0,61,0.00,,,0.00,Wunderground v.1.15,2013-04-07 06:14:00,
2013-04-07 00:19:00,41.3,28.9,29.80,West,263,0.0,0.0,61,0.00,,,0.00,Wunderground v.1.15,2013-04-07 06:19:00,
2013-04-07 00:24:00,41.3,28.4,29.80,West,263,0.0,0.0,60,0.00,,,0.00,Wunderground v.1.15,2013-04-07 06:24:00,
2013-04-07 00:34:00,41.2,28.4,29.80,West,263,0.0,0.0,60,0.00,,,0.00,Wunderground v.1.15,2013-04-07 06:34:00,
2013-04-07 00:39:00,41.3,28.4,29.81,West,263,0.0,0.0,60,0.00,,,0.00,Wunderground v.1.15,2013-04-07 06:39:00,
2013-04-07 00:49:00,41.0,28.2,29.80,West,263,0.0,0.0,60,0.00,,,0.00,Wunderground v.1.15,2013-04-07 06:49:00,
2013-04-07 00:59:00,41.0,27.8,29.80,West,263,0.0,0.0,59,0.00,,,0.00,Wunderground v.1.15,2013-04-07 06:59:00,
2013-04-07 01:09:00,41.1,27.9,29.79,West,263,0.0,0.0,59,0.00,,,0.00,Wunderground v.1.15,2013-04-07 07:09:00,
2013-04-07 01:14:00,41.0,27.8,29.79,West,263,0.0,0.0,59,0.00,,,0.00,Wunderground v.1.15,2013-04-07 07:14:00,
2013-04-07 01:24:00,41.6,27.5,29.78,West,264,0.0,0.0,57,0.00,,,0.00,Wunderground v.1.15,2013-04-07 07:24:00,
2013-04-07 01:29:00,42.9,26.0,29.78,West,259,1.0,1.0,51,0.00,,,0.00,Wunderground v.1.15,2013-04-07 07:29:00,
2013-04-07 01:39:00,45.2,24.6,29.78,NW,319,2.0,2.0,44,0.00,,,0.00,Wunderground v.1.15,2013-04-07 07:39:00,
2013-04-07 01:44:00,45.4,24.7,29.77,WNW,292,2.0,3.0,44,0.00,,,0.00,Wunderground v.1.15,2013-04-07 07:44:00,
2013-04-07 01:54:00,43.9,24.9,29.77,WNW,288,1.0,2.0,47,0.00,,,0.00,Wunderground v.1.15,2013-04-07 07:54:00,
2013-04-07 01:59:00,42.9,25.0,29.77,WNW,282,0.0,0.0,49,0.00,,,0.00,Wunderground v.1.15,2013-04-07 07:59:00,
2013-04-07 02:09:00,41.2,25.3,29.77,WNW,282,0.0,0.0,53,0.00,,,0.00,Wunderground v.1.15,2013-04-07 08:09:00,
2013-04-07 02:19:00,39.9,26.3,29.77,WNW,282,0.0,0.0,58,0.00,,,0.00,Wunderground v.1.15,2013-04-07 08:19:00,
2013-04-07 02:29:00,38.5,27.4,29.76,WNW,282,0.0,0.0,64,0.00,,,0.00,Wunderground v.1.15,2013-04-07 08:29:00,
2013-04-07 02:39:00,37.3,26.2,29.76,WNW,282,0.0,0.0,64,0.00,,,0.00,Wunderground v.1.15,2013-04-07 08:39:00,
2013-04-07 02:44:00,37.0,26.3,29.76,WNW,282,0.0,0.0,65,0.00,,,0.00,Wunderground v.1.15,2013-04-07 08:44:00,
2013-04-07 02:49:00,36.7,27.1,29.76,WNW,282,0.0,0.0,68,0.00,,,0.00,Wunderground v.1.15,2013-04-07 08:49:00,
2013-04-07 02:54:00,36.3,26.4,29.75,WNW,282,0.0,0.0,67,0.00,,,0.00,Wunderground v.1.15,2013-04-07 08:54:00,
2013-04-07 03:00:00,36.0,25.7,29.75,WNW,282,0.0,0.0,66,0.00,,,0.00,Wunderground v.1.15,2013-04-07 09:00:00,
2013-04-07 03:09:00,35.5,25.6,29.75,WNW,282,0.0,0.0,67,0.00,,,0.00,Wunderground v.1.15,2013-04-07 09:09:00,
2013-04-07 03:14:00,35.3,25.8,29.75,WNW,282,0.0,0.0,68,0.00,,,0.00,Wunderground v.1.15,2013-04-07 09:14:00,
2013-04-07 03:19:00,35.1,25.6,29.75,WNW,282,0.0,0.0,68,0.00,,,0.00,Wunderground v.1.15,2013-04-07 09:19:00,
2013-04-07 03:29:00,34.6,25.8,29.76,WNW,282,0.0,0.0,70,0.00,,,0.00,Wunderground v.1.15,2013-04-07 09:29:00,
2013-04-07 03:34:00,34.2,25.4,29.76,WNW,282,0.0,0.0,70,0.00,,,0.00,Wunderground v.1.15,2013-04-07 09:34:00,
2013-04-07 03:39:00,34.0,25.2,29.76,WNW,282,0.0,0.0,70,0.00,,,0.00,Wunderground v.1.15,2013-04-07 09:39:00,
2013-04-07 03:54:00,33.3,24.9,29.76,WNW,282,0.0,0.0,71,0.00,,,0.00,Wunderground v.1.15,2013-04-07 09:54:00,
2013-04-07 03:59:00,33.3,25.2,29.76,WNW,282,0.0,0.0,72,0.00,,,0.00,Wunderground v.1.15,2013-04-07 09:59:00,
2013-04-07 04:09:00,33.1,25.1,29.76,WNW,282,0.0,0.0,72,0.00,,,0.00,Wunderground v.1.15,2013-04-07 10:09:00,
2013-04-07 04:14:00,33.3,25.2,29.76,WNW,282,0.0,0.0,72,0.00,,,0.00,Wunderground v.1.15,2013-04-07 10:14:00,
2013-04-07 04:19:00,33.5,25.4,29.76,WNW,282,0.0,0.0,72,0.00,,,0.00,Wunderground v.1.15,2013-04-07 10:19:00,
2013-04-07 04:24:00,33.6,25.5,29.76,WNW,282,0.0,0.0,72,0.00,,,0.00,Wunderground v.1.15,2013-04-07 10:24:00,
2013-04-07 04:29:00,33.8,25.7,29.76,WNW,282,0.0,0.0,72,0.00,,,0.00,Wunderground v.1.15,2013-04-07 10:29:00,
2013-04-07 04:39:00,33.8,25.7,29.75,WNW,282,0.0,0.0,72,0.00,,,0.00,Wunderground v.1.15,2013-04-07 10:39:00,
2013-04-07 04:49:00,33.6,25.5,29.75,WNW,282,0.0,0.0,72,0.00,,,0.00,Wunderground v.1.15,2013-04-07 10:49:00,
2013-04-07 04:54:00,33.4,25.3,29.75,WNW,282,0.0,0.0,72,0.00,,,0.00,Wunderground v.1.15,2013-04-07 10:54:00,
2013-04-07 05:00:00,33.2,25.5,29.75,WNW,282,0.0,0.0,73,0.00,,,0.00,Wunderground v.1.15,2013-04-07 11:00:00,
2013-04-07 05:09:00,32.6,25.6,29.75,WNW,282,0.0,0.0,75,0.00,,,0.00,Wunderground v.1.15,2013-04-07 11:09:00,
2013-04-07 05:14:00,32.3,25.3,29.75,WNW,282,0.0,0.0,75,0.00,,,0.00,Wunderground v.1.15,2013-04-07 11:14:00,
2013-04-07 05:19:00,32.1,25.4,29.76,WNW,282,0.0,0.0,76,0.00,,,0.00,Wunderground v.1.15,2013-04-07 11:19:00,
2013-04-07 05:29:00,31.7,25.0,29.75,WNW,282,0.0,0.0,76,0.00,,,0.00,Wunderground v.1.15,2013-04-07 11:29:00,
2013-04-07 05:34:00,31.5,25.1,29.75,WNW,282,0.0,0.0,77,0.00,,,0.00,Wunderground v.1.15,2013-04-07 11:34:00,
2013-04-07 05:44:00,31.2,25.1,29.75,WNW,282,0.0,0.0,78,0.00,,,0.00,Wunderground v.1.15,2013-04-07 11:44:00,
2013-04-07 06:00:00,30.5,24.8,29.75,WNW,282,0.0,0.0,79,0.00,,,0.00,Wunderground v.1.15,2013-04-07 12:00:00,
2013-04-07 06:09:00,30.3,24.6,29.75,WNW,282,0.0,0.0,79,0.00,,,0.00,Wunderground v.1.15,2013-04-07 12:09:00,
2013-04-07 06:14:00,30.2,24.5,29.75,WNW,282,0.0,0.0,79,0.00,,,0.00,Wunderground v.1.15,2013-04-07 12:14:00,
2013-04-07 06:24:00,29.9,24.5,29.75,WNW,282,0.0,0.0,80,0.00,,,0.00,Wunderground v.1.15,2013-04-07 12:24:00,
2013-04-07 06:29:00,29.8,24.4,29.75,WNW,282,0.0,0.0,80,0.00,,,0.00,Wunderground v.1.15,2013-04-07 12:29:00,
2013-04-07 06:49:00,29.5,24.4,29.76,WNW,282,0.0,0.0,81,0.00,,,0.00,Wunderground v.1.15,2013-04-07 12:49:00,
2013-04-07 06:59:00,29.5,24.4,29.76,WNW,282,0.0,0.0,81,0.00,,,0.00,Wunderground v.1.15,2013-04-07 12:59:00,
2013-04-07 07:09:00,29.6,24.5,29.75,WNW,282,0.0,0.0,81,0.00,,,0.00,Wunderground v.1.15,2013-04-07 13:09:00,
2013-04-07 07:14:00,29.6,24.5,29.75,WNW,282,0.0,0.0,81,0.00,,,0.00,Wunderground v.1.15,2013-04-07 13:14:00,
2013-04-07 07:19:00,29.6,24.5,29.75,WNW,282,0.0,0.0,81,0.00,,,0.00,Wunderground v.1.15,2013-04-07 13:19:00,
2013-04-07 07:24:00,29.7,24.6,29.75,WNW,282,0.0,0.0,81,0.00,,,0.00,Wunderground v.1.15,2013-04-07 13:24:00,
2013-04-07 07:34:00,29.9,24.8,29.75,WNW,282,0.0,0.0,81,0.00,,,0.00,Wunderground v.1.15,2013-04-07 13:34:00,
2013-04-07 07:39:00,30.1,25.0,29.76,WNW,282,0.0,0.0,81,0.00,,,0.00,Wunderground v.1.15,2013-04-07 13:39:00,
2013-04-07 07:44:00,30.3,25.2,29.76,WNW,282,0.0,0.0,81,0.00,,,0.00,Wunderground v.1.15,2013-04-07 13:44:00,
2013-04-07 07:49:00,30.4,25.3,29.76,WNW,282,0.0,0.0,81,0.00,,,0.00,Wunderground v.1.15,2013-04-07 13:49:00,
2013-04-07 07:59:00,30.7,25.3,29.76,WNW,282,0.0,0.0,80,0.00,,,0.00,Wunderground v.1.15,2013-04-07 13:59:00,
2013-04-07 08:09:00,31.1,25.7,29.75,WNW,282,0.0,0.0,80,0.00,,,0.00,Wunderground v.1.15,2013-04-07 14:09:00,
2013-04-07 08:19:00,32.0,25.9,29.75,WNW,282,0.0,0.0,78,0.00,,,0.00,Wunderground v.1.15,2013-04-07 14:19:00,
2013-04-07 08:24:00,32.4,26.0,29.75,WNW,282,0.0,0.0,77,0.00,,,0.00,Wunderground v.1.15,2013-04-07 14:24:00,
2013-04-07 08:34:00,35.3,27.2,29.75,WNW,282,0.0,0.0,72,0.00,,,0.00,Wunderground v.1.15,2013-04-07 14:34:00,
2013-04-07 08:39:00,38.0,28.0,29.75,NW,320,0.0,0.0,67,0.00,,,0.00,Wunderground v.1.15,2013-04-07 14:39:00,
2013-04-07 08:49:00,45.9,26.3,29.75,NW,316,3.0,5.0,46,0.00,,,0.00,Wunderground v.1.15,2013-04-07 14:49:00,
2013-04-07 08:54:00,47.6,26.2,29.75,NNE,32,5.0,8.0,43,0.00,,,0.00,Wunderground v.1.15,2013-04-07 14:54:00,
2013-04-07 09:00:00,48.3,25.1,29.75,North,355,5.0,8.0,40,0.00,,,0.00,Wunderground v.1.15,2013-04-07 15:00:00,
2013-04-07 09:09:00,49.0,24.5,29.75,NNW,346,7.0,7.0,38,0.00,,,0.00,Wunderground v.1.15,2013-04-07 15:09:00,
2013-04-07 09:14:00,49.1,23.9,29.75,WNW,292,7.0,7.0,37,0.00,,,0.00,Wunderground v.1.15,2013-04-07 15:14:00,
2013-04-07 09:19:00,49.3,23.4,29.75,NNW,333,7.0,7.0,36,0.00,,,0.00,Wunderground v.1.15,2013-04-07 15:19:00,
2013-04-07 09:24:00,49.3,23.4,29.74,NNW,333,9.0,9.0,36,0.00,,,0.00,Wunderground v.1.15,2013-04-07 15:24:00,
2013-04-07 09:34:00,49.9,23.3,29.74,NW,320,8.0,12.0,35,0.00,,,0.00,Wunderground v.1.15,2013-04-07 15:34:00,
2013-04-07 09:44:00,50.5,23.1,29.74,North,360,7.0,10.0,34,0.00,,,0.00,Wunderground v.1.15,2013-04-07 15:44:00,
2013-04-07 09:49:00,50.6,23.2,29.74,NW,306,8.0,8.0,34,0.00,,,0.00,Wunderground v.1.15,2013-04-07 15:49:00,
2013-04-07 09:54:00,50.9,22.8,29.74,WNW,300,8.0,8.0,33,0.00,,,0.00,Wunderground v.1.15,2013-04-07 15:54:00,
2013-04-07 09:59:00,50.9,22.8,29.74,NNW,345,9.0,16.0,33,0.00,,,0.00,Wunderground v.1.15,2013-04-07 15:59:00,
2013-04-07 10:09:00,50.7,22.6,29.74,WNW,297,9.0,9.0,33,0.00,,,0.00,Wunderground v.1.15,2013-04-07 16:09:00,
2013-04-07 10:19:00,50.9,22.8,29.74,NNW,340,9.0,13.0,33,0.00,,,0.00,Wunderground v.1.15,2013-04-07 16:19:00,
2013-04-07 10:24:00,51.1,23.0,29.74,North,360,9.0,13.0,33,0.00,,,0.00,Wunderground v.1.15,2013-04-07 16:24:00,
2013-04-07 10:29:00,51.1,23.0,29.74,NW,316,9.0,13.0,33,0.00,,,0.00,Wunderground v.1.15,2013-04-07 16:29:00,
2013-04-07 10:39:00,51.4,22.5,29.74,NW,305,9.0,9.0,32,0.00,,,0.00,Wunderground v.1.15,2013-04-07 16:39:00,
2013-04-07 10:49:00,51.8,22.8,29.73,NNW,338,7.0,8.0,32,0.00,,,0.00,Wunderground v.1.15,2013-04-07 16:49:00,
2013-04-07 10:59:00,52.1,21.6,29.74,NW,315,9.0,9.0,30,0.00,,,0.00,Wunderground v.1.15,2013-04-07 16:59:00,
2013-04-07 11:14:00,52.3,20.9,29.73,NW,311,8.0,12.0,29,0.00,,,0.00,Wunderground v.1.15,2013-04-07 17:14:00,
2013-04-07 11:19:00,52.6,22.0,29.73,NW,321,8.0,8.0,30,0.00,,,0.00,Wunderground v.1.15,2013-04-07 17:19:00,
2013-04-07 11:29:00,52.3,20.9,29.74,NW,326,8.0,9.0,29,0.00,,,0.00,Wunderground v.1.15,2013-04-07 17:29:00,
2013-04-07 11:34:00,52.3,20.1,29.74,North,360,11.0,11.0,28,0.00,,,0.00,Wunderground v.1.15,2013-04-07 17:34:00,
2013-04-07 11:39:00,52.3,20.1,29.73,NW,319,11.0,11.0,28,0.00,,,0.00,Wunderground v.1.15,2013-04-07 17:39:00,
2013-04-07 11:49:00,52.8,18.8,29.72,NW,316,9.0,9.0,26,0.00,,,0.00,Wunderground v.1.15,2013-04-07 17:49:00,
2013-04-07 11:54:00,53.1,20.0,29.73,NW,321,9.0,10.0,27,0.00,,,0.00,Wunderground v.1.15,2013-04-07 17:54:00,
2013-04-07 11:59:00,53.3,20.1,29.72,NNW,327,9.0,9.0,27,0.00,,,0.00,Wunderground v.1.15,2013-04-07 17:59:00,
2013-04-07 12:09:00,53.6,18.6,29.72,North,355,10.0,10.0,25,0.00,,,0.00,Wunderground v.1.15,2013-04-07 18:09:00,
2013-04-07 12:14:00,53.8,18.7,29.71,NW,319,9.0,10.0,25,0.00,,,0.00,Wunderground v.1.15,2013-04-07 18:14:00,
2013-04-07 12:19:00,54.5,18.4,29.71,North,351,8.0,8.0,24,0.00,,,0.00,Wunderground v.1.15,2013-04-07 18:19:00,
2013-04-07 12:29:00,54.6,18.5,29.71,NNW,329,8.0,14.0,24,0.00,,,0.00,Wunderground v.1.15,2013-04-07 18:29:00,
2013-04-07 12:34:00,54.2,17.1,29.71,NNW,347,9.0,14.0,23,0.00,,,0.00,Wunderground v.1.15,2013-04-07 18:34:00,
2013-04-07 12:39:00,54.5,17.4,29.71,WNW,282,9.0,12.0,23,0.00,,,0.00,Wunderground v.1.15,2013-04-07 18:39:00,
2013-04-07 12:49:00,55.1,16.9,29.70,NNW,329,8.0,12.0,22,0.00,,,0.00,Wunderground v.1.15,2013-04-07 18:49:00,
2013-04-07 12:59:00,54.7,17.6,29.71,WNW,300,10.0,10.0,23,0.00,,,0.00,Wunderground v.1.15,2013-04-07 18:59:00,
2013-04-07 13:09:00,54.9,16.7,29.70,North,355,9.0,13.0,22,0.00,,,0.00,Wunderground v.1.15,2013-04-07 19:09:00,
2013-04-07 13:14:00,54.7,15.5,29.69,WNW,296,10.0,13.0,21,0.00,,,0.00,Wunderground v.1.15,2013-04-07 19:14:00,
2013-04-07 13:19:00,55.0,16.8,29.69,NW,318,8.0,8.0,22,0.00,,,0.00,Wunderground v.1.15,2013-04-07 19:19:00,
2013-04-07 13:24:00,55.4,16.1,29.69,NW,322,8.0,8.0,21,0.00,,,0.00,Wunderground v.1.15,2013-04-07 19:24:00,
2013-04-07 13:34:00,55.8,16.4,29.68,NNW,346,8.0,9.0,21,0.00,,,0.00,Wunderground v.1.15,2013-04-07 19:34:00,
2013-04-07 13:39:00,55.6,17.3,29.68,NW,324,8.0,8.0,22,0.00,,,0.00,Wunderground v.1.15,2013-04-07 19:39:00,
2013-04-07 13:44:00,56.0,16.6,29.68,NNW,346,8.0,8.0,21,0.00,,,0.00,Wunderground v.1.15,2013-04-07 19:44:00,
2013-04-07 13:54:00,56.0,15.4,29.69,North,351,10.0,10.0,20,0.00,,,0.00,Wunderground v.1.15,2013-04-07 19:54:00,
2013-04-07 13:59:00,55.9,15.3,29.68,NNW,341,10.0,10.0,20,0.00,,,0.00,Wunderground v.1.15,2013-04-07 19:59:00,
2013-04-07 14:09:00,56.8,14.9,29.68,North,5,6.0,7.0,19,0.00,,,0.00,Wunderground v.1.15,2013-04-07 20:09:00,
2013-04-07 14:14:00,56.7,14.8,29.68,NW,320,8.0,9.0,19,0.00,,,0.00,Wunderground v.1.15,2013-04-07 20:14:00,
2013-04-07 14:24:00,56.6,13.5,29.67,NW,321,9.0,14.0,18,0.00,,,0.00,Wunderground v.1.15,2013-04-07 20:24:00,
2013-04-07 14:29:00,56.7,16.0,29.67,NNE,20,9.0,9.0,20,0.00,,,0.00,Wunderground v.1.15,2013-04-07 20:29:00,
2013-04-07 14:39:00,56.6,17.1,29.67,NW,308,8.0,9.0,21,0.00,,,0.00,Wunderground v.1.15,2013-04-07 20:39:00,
2013-04-07 14:49:00,56.4,14.6,29.67,NNW,338,11.0,13.0,19,0.00,,,0.00,Wunderground v.1.15,2013-04-07 20:49:00,
2013-04-07 14:59:00,56.8,14.9,29.67,North,5,11.0,11.0,19,0.00,,,0.00,Wunderground v.1.15,2013-04-07 20:59:00,
2013-04-07 15:09:00,56.7,14.8,29.67,NNW,348,9.0,10.0,19,0.00,,,0.00,Wunderground v.1.15,2013-04-07 21:09:00,
2013-04-07 15:19:00,56.9,13.8,29.66,West,270,6.0,12.0,18,0.00,,,0.00,Wunderground v.1.15,2013-04-07 21:19:00,
2013-04-07 15:29:00,56.8,16.1,29.66,NNW,327,8.0,9.0,20,0.00,,,0.00,Wunderground v.1.15,2013-04-07 21:29:00,
2013-04-07 15:39:00,57.2,15.2,29.66,NW,318,9.0,9.0,19,0.00,,,0.00,Wunderground v.1.15,2013-04-07 21:39:00,
2013-04-07 15:44:00,57.3,15.3,29.66,NNW,328,6.0,10.0,19,0.00,,,0.00,Wunderground v.1.15,2013-04-07 21:44:00,
2013-04-07 15:49:00,57.3,15.3,29.66,NW,325,6.0,10.0,19,0.00,,,0.00,Wunderground v.1.15,2013-04-07 21:49:00,
2013-04-07 15:59:00,56.7,16.0,29.65,NNW,332,6.0,7.0,20,0.00,,,0.00,Wunderground v.1.15,2013-04-07 21:59:00,
2013-04-07 16:09:00,56.8,14.9,29.66,North,360,7.0,7.0,19,0.00,,,0.00,Wunderground v.1.15,2013-04-07 22:09:00,
2013-04-07 16:19:00,57.1,13.9,29.64,NW,318,6.0,6.0,18,0.00,,,0.00,Wunderground v.1.15,2013-04-07 22:19:00,
2013-04-07 16:24:00,57.1,13.9,29.65,WNW,292,7.0,7.0,18,0.00,,,0.00,Wunderground v.1.15,2013-04-07 22:24:00,
2013-04-07 16:29:00,57.1,12.6,29.64,NW,320,7.0,10.0,17,0.00,,,0.00,Wunderground v.1.15,2013-04-07 22:29:00,
2013-04-07 16:39:00,57.3,14.1,29.66,NNW,334,7.0,9.0,18,0.00,,,0.00,Wunderground v.1.15,2013-04-07 22:39:00,
2013-04-07 16:44:00,56.9,15.0,29.65,NNW,327,8.0,11.0,19,0.00,,,0.00,Wunderground v.1.15,2013-04-07 22:44:00,
2013-04-07 16:49:00,56.5,15.8,29.65,NW,313,7.0,7.0,20,0.00,,,0.00,Wunderground v.1.15,2013-04-07 22:49:00,
2013-04-07 16:54:00,56.6,13.5,29.64,WNW,303,7.0,7.0,18,0.00,,,0.00,Wunderground v.1.15,2013-04-07 22:54:00,
2013-04-07 16:59:00,56.8,13.7,29.65,NNW,344,7.0,7.0,18,0.00,,,0.00,Wunderground v.1.15,2013-04-07 22:59:00,
2013-04-07 17:09:00,56.7,14.8,29.65,NNW,330,8.0,11.0,19,0.00,,,0.00,Wunderground v.1.15,2013-04-07 23:09:00,
2013-04-07 17:19:00,56.4,15.8,29.64,WNW,296,6.0,6.0,20,0.00,,,0.00,Wunderground v.1.15,2013-04-07 23:19:00,
2013-04-07 17:24:00,56.3,14.5,29.65,NNW,342,5.0,11.0,19,0.00,,,0.00,Wunderground v.1.15,2013-04-07 23:24:00,
2013-04-07 17:29:00,56.1,13.1,29.64,NNW,333,7.0,7.0,18,0.00,,,0.00,Wunderground v.1.15,2013-04-07 23:29:00,
2013-04-07 17:39:00,55.9,12.9,29.65,NW,319,6.0,6.0,18,0.00,,,0.00,Wunderground v.1.15,2013-04-07 23:39:00,
2013-04-07 17:44:00,55.9,14.2,29.65,NNW,333,7.0,13.0,19,0.00,,,0.00,Wunderground v.1.15,2013-04-07 23:44:00,
2013-04-07 17:49:00,55.8,14.1,29.64,NNW,345,6.0,13.0,19,0.00,,,0.00,Wunderground v.1.15,2013-04-07 23:49:00,
2013-04-07 17:54:00,55.8,14.1,29.65,NNW,346,6.0,13.0,19,0.00,,,0.00,Wunderground v.1.15,2013-04-07 23:54:00,
2013-04-07 17:59:00,55.8,12.9,29.65,NNW,332,6.0,9.0,18,0.00,,,0.00,Wunderground v.1.15,2013-04-07 23:59:00,
2013-04-07 18:09:00,55.6,13.9,29.65,NW,310,6.0,7.0,19,0.00,,,0.00,Wunderground v.1.15,2013-04-08 00:09:00,
2013-04-07 18:19:00,55.3,14.8,29.65,NW,314,5.0,5.0,20,0.00,,,0.00,Wunderground v.1.15,2013-04-08 00:19:00,
2013-04-07 18:24:00,55.3,14.8,29.66,NNW,340,5.0,7.0,20,0.00,,,0.00,Wunderground v.1.15,2013-04-08 00:24:00,
2013-04-07 18:29:00,55.1,14.7,29.65,NW,317,4.0,6.0,20,0.00,,,0.00,Wunderground v.1.15,2013-04-08 00:29:00,
2013-04-07 18:34:00,55.0,13.4,29.65,NW,326,6.0,6.0,19,0.00,,,0.00,Wunderground v.1.15,2013-04-08 00:34:00,
2013-04-07 18:44:00,54.7,16.5,29.65,WNW,302,4.0,6.0,22,0.00,,,0.00,Wunderground v.1.15,2013-04-08 00:44:00,
2013-04-07 18:49:00,54.0,14.9,29.65,NNW,341,3.0,4.0,21,0.00,,,0.00,Wunderground v.1.15,2013-04-08 00:49:00,
2013-04-07 18:54:00,54.0,14.9,29.66,NW,325,4.0,4.0,21,0.00,,,0.00,Wunderground v.1.15,2013-04-08 00:54:00,
2013-04-07 18:59:00,53.9,13.7,29.66,WNW,301,4.0,4.0,20,0.00,,,0.00,Wunderground v.1.15,2013-04-08 00:59:00,
2013-04-07 19:09:00,53.2,16.3,29.66,NNW,330,2.0,2.0,23,0.00,,,0.00,Wunderground v.1.15,2013-04-08 01:09:00,
2013-04-07 19:19:00,51.9,17.1,29.67,NW,307,1.0,1.0,25,0.00,,,0.00,Wunderground v.1.15,2013-04-08 01:19:00,
2013-04-07 19:29:00,51.6,17.8,29.67,NW,306,2.0,2.0,26,0.00,,,0.00,Wunderground v.1.15,2013-04-08 01:29:00,
2013-04-07 19:44:00,49.1,19.0,29.67,NW,307,0.0,0.0,30,0.00,,,0.00,Wunderground v.1.15,2013-04-08 01:44:00,
2013-04-07 19:59:00,47.9,17.9,29.68,NNW,329,0.0,1.0,30,0.00,,,0.00,Wunderground v.1.15,2013-04-08 01:59:00,
2013-04-07 20:09:00,47.2,19.5,29.68,WNW,287,0.0,0.0,33,0.00,,,0.00,Wunderground v.1.15,2013-04-08 02:09:00,
2013-04-07 20:14:00,46.7,19.8,29.68,WNW,287,0.0,0.0,34,0.00,,,0.00,Wunderground v.1.15,2013-04-08 02:14:00,
2013-04-07 20:19:00,45.9,22.9,29.69,WNW,287,0.0,0.0,40,0.00,,,0.00,Wunderground v.1.15,2013-04-08 02:19:00,
2013-04-07 20:24:00,45.1,23.3,29.68,WNW,287,0.0,0.0,42,0.00,,,0.00,Wunderground v.1.15,2013-04-08 02:24:00,
2013-04-07 20:34:00,44.2,23.1,29.69,WNW,287,0.0,0.0,43,0.00,,,0.00,Wunderground v.1.15,2013-04-08 02:34:00,
2013-04-07 20:39:00,43.7,22.6,29.69,WNW,287,0.0,0.0,43,0.00,,,0.00,Wunderground v.1.15,2013-04-08 02:39:00,
2013-04-07 20:49:00,42.9,23.0,29.69,WNW,287,0.0,0.0,45,0.00,,,0.00,Wunderground v.1.15,2013-04-08 02:49:00,
2013-04-07 20:54:00,42.7,22.8,29.69,WNW,287,0.0,0.0,45,0.00,,,0.00,Wunderground v.1.15,2013-04-08 02:54:00,
2013-04-07 21:14:00,41.6,22.8,29.70,WNW,287,0.0,0.0,47,0.00,,,0.00,Wunderground v.1.15,2013-04-08 03:14:00,
2013-04-07 21:19:00,41.2,23.0,29.69,WNW,287,0.0,0.0,48,0.00,,,0.00,Wunderground v.1.15,2013-04-08 03:19:00,
2013-04-07 21:29:00,40.7,21.5,29.69,WNW,287,0.0,0.0,46,0.00,,,0.00,Wunderground v.1.15,2013-04-08 03:29:00,
2013-04-07 21:44:00,39.9,23.2,29.70,WNW,287,0.0,0.0,51,0.00,,,0.00,Wunderground v.1.15,2013-04-08 03:44:00,
2013-04-07 21:49:00,39.6,22.0,29.70,WNW,287,0.0,0.0,49,0.00,,,0.00,Wunderground v.1.15,2013-04-08 03:49:00,
2013-04-07 22:00:00,39.2,22.1,29.70,WNW,287,0.0,0.0,50,0.00,,,0.00,Wunderground v.1.15,2013-04-08 04:00:00,
2013-04-07 22:04:00,39.0,22.8,29.69,WNW,287,0.0,0.0,52,0.00,,,0.00,Wunderground v.1.15,2013-04-08 04:04:00,
2013-04-07 22:09:00,38.8,21.7,29.69,WNW,287,0.0,0.0,50,0.00,,,0.00,Wunderground v.1.15,2013-04-08 04:09:00,
2013-04-07 22:14:00,38.6,21.5,29.69,WNW,287,0.0,0.0,50,0.00,,,0.00,Wunderground v.1.15,2013-04-08 04:14:00,
2013-04-07 22:19:00,38.4,21.8,29.69,WNW,287,0.0,0.0,51,0.00,,,0.00,Wunderground v.1.15,2013-04-08 04:19:00,
2013-04-07 22:24:00,38.1,22.5,29.69,WNW,287,0.0,0.0,53,0.00,,,0.00,Wunderground v.1.15,2013-04-08 04:24:00,
2013-04-07 22:29:00,37.8,22.2,29.69,WNW,287,0.0,0.0,53,0.00,,,0.00,Wunderground v.1.15,2013-04-08 04:29:00,
2013-04-07 22:44:00,37.1,22.0,29.68,WNW,287,0.0,0.0,54,0.00,,,0.00,Wunderground v.1.15,2013-04-08 04:44:00,
2013-04-07 22:49:00,36.9,22.2,29.68,WNW,287,0.0,0.0,55,0.00,,,0.00,Wunderground v.1.15,2013-04-08 04:49:00,
2013-04-07 22:54:00,36.8,22.1,29.68,WNW,287,0.0,0.0,55,0.00,,,0.00,Wunderground v.1.15,2013-04-08 04:54:00,
2013-04-07 22:59:00,36.5,22.7,29.68,WNW,287,0.0,0.0,57,0.00,,,0.00,Wunderground v.1.15,2013-04-08 04:59:00,
2013-04-07 23:09:00,36.1,21.9,29.67,WNW,287,0.0,0.0,56,0.00,,,0.00,Wunderground v.1.15,2013-04-08 05:09:00,
2013-04-07 23:14:00,36.0,22.2,29.67,WNW,287,0.0,0.0,57,0.00,,,0.00,Wunderground v.1.15,2013-04-08 05:14:00,
2013-04-07 23:19:00,35.9,22.1,29.67,WNW,287,0.0,0.0,57,0.00,,,0.00,Wunderground v.1.15,2013-04-08 05:19:00,
2013-04-07 23:24:00,35.6,21.9,29.67,WNW,287,0.0,0.0,57,0.00,,,0.00,Wunderground v.1.15,2013-04-08 05:24:00,
2013-04-07 23:34:00,35.1,21.8,29.66,WNW,287,0.0,0.0,58,0.00,,,0.00,Wunderground v.1.15,2013-04-08 05:34:00,
2013-04-07 23:39:00,34.9,22.0,29.66,WNW,287,0.0,0.0,59,0.00,,,0.00,Wunderground v.1.15,2013-04-08 05:39:00,
2013-04-07 23:44:00,34.7,21.8,29.66,WNW,287,0.0,0.0,59,0.00,,,0.00,Wunderground v.1.15,2013-04-08 05:44:00,
2013-04-07 23:49:00,34.5,22.0,29.66,WNW,287,0.0,0.0,60,0.00,,,0.00,Wunderground v.1.15,2013-04-08 05:49:00,
2013-04-07 23:59:00,34.3,21.4,29.66,WNW,287,0.0,0.0,59,0.00,,,0.00,Wunderground v.1.15,2013-04-08 05:59:00,